Weather at Shoshone County Airport

Public forecast

Using degrees Fahrenheit for public forecast. Weather courtesy of forecast.io.

Closest aviation weather report (METAR) to Shoshone County Airport

Closest report is Coeur D'Alene - Pappy Boyington Field, 29.0 nm (53.6 km) WNW. Retrieved 2021/06/21 02:56 UTC (11 minutes ago):

KCOE 210256Z AUTO 07010KT 10SM CLR 24/08 A3006 RMK AO2 SLP179 6//// T02440083 55005 PNO

Closest aviation forecast (TAF) to Shoshone County Airport

Closest forecast is Coeur D'Alene - Pappy Boyington Field, 29.0 nm (53.6 km) WNW. Retrieved 2021-06-21 00:22 UTC (3 hours ago):

TAF KCOE 202320Z 2100/2124 06011KT P6SM FEW070 SCT250 FM210600 05008KT P6SM SCT250 FM212000 VRB04KT P6SM FEW070